createdAt,value
2022-09-02T00:00:58.878Z,13.41
2022-09-02T00:01:59.010Z,13.32
2022-09-02T00:02:59.001Z,13.30
2022-09-02T00:03:58.879Z,13.33
2022-09-02T00:04:59.232Z,13.41
2022-09-02T00:05:58.853Z,13.46
2022-09-02T00:06:58.847Z,13.52
2022-09-02T00:07:58.822Z,13.54
2022-09-02T00:08:58.821Z,13.52
2022-09-02T00:09:59.228Z,13.48
2022-09-02T00:10:58.843Z,13.42
2022-09-02T00:11:58.758Z,13.39
2022-09-02T00:12:58.738Z,13.32
2022-09-02T00:13:58.724Z,13.30
2022-09-02T00:14:59.186Z,13.26
2022-09-02T00:16:10.311Z,13.22
2022-09-02T00:16:58.791Z,13.15
2022-09-02T00:17:59.062Z,13.10
2022-09-02T00:18:58.666Z,13.04
2022-09-02T00:19:59.017Z,13.03
2022-09-02T00:20:58.654Z,12.97
2022-09-02T00:21:58.616Z,12.96
2022-09-02T00:22:58.634Z,12.95
2022-09-02T00:23:58.614Z,12.93
2022-09-02T00:24:58.925Z,12.90
2022-09-02T00:25:58.574Z,12.83
2022-09-02T00:26:58.593Z,12.77
2022-09-02T00:27:58.553Z,12.74
2022-09-02T00:28:58.567Z,12.74
2022-09-02T00:29:58.972Z,12.70
2022-09-02T00:30:58.534Z,12.67
2022-09-02T00:31:58.606Z,12.65
2022-09-02T00:32:58.502Z,12.65
2022-09-02T00:33:58.523Z,12.57
2022-09-02T00:34:58.953Z,12.53
2022-09-02T00:35:58.461Z,12.52
2022-09-02T00:36:58.453Z,12.50
2022-09-02T00:37:58.463Z,12.50
2022-09-02T00:38:58.463Z,12.49
2022-09-02T00:39:58.782Z,12.47
2022-09-02T00:40:58.402Z,12.46
2022-09-02T00:41:58.372Z,12.45
2022-09-02T00:42:58.374Z,12.38
2022-09-02T00:43:58.339Z,12.37
2022-09-02T00:44:58.381Z,12.38
2022-09-02T00:45:58.789Z,12.35
2022-09-02T00:46:58.329Z,12.37
2022-09-02T00:47:58.318Z,12.34
2022-09-02T00:48:58.313Z,12.32
2022-09-02T00:49:58.310Z,12.31
2022-09-02T00:50:58.600Z,12.29
2022-09-02T00:51:58.244Z,12.28
2022-09-02T00:52:58.267Z,12.28
2022-09-02T00:53:58.272Z,12.24
2022-09-02T00:54:58.217Z,12.23
2022-09-02T00:55:58.644Z,12.23
2022-09-02T00:56:58.189Z,12.27
2022-09-02T00:57:58.199Z,12.27
2022-09-02T00:58:58.206Z,12.28
2022-09-02T00:59:58.151Z,12.28
2022-09-02T01:00:58.689Z,12.31
2022-09-02T01:01:58.281Z,12.34
2022-09-02T01:02:58.127Z,12.38
2022-09-02T01:03:58.128Z,12.39
2022-09-02T01:04:58.107Z,12.38
2022-09-02T01:05:58.453Z,12.41
2022-09-02T01:06:58.047Z,12.42
2022-09-02T01:07:58.049Z,12.47
2022-09-02T01:08:58.089Z,12.50
2022-09-02T01:09:58.005Z,12.53
2022-09-02T01:10:58.385Z,12.54
2022-09-02T01:11:57.984Z,12.62
2022-09-02T01:12:57.985Z,12.67
2022-09-02T01:13:58.116Z,12.75
2022-09-02T01:14:58.005Z,12.85
2022-09-02T01:15:58.377Z,12.97
2022-09-02T01:16:57.955Z,13.10
2022-09-02T01:17:57.933Z,13.15
2022-09-02T01:18:57.922Z,13.23
2022-09-02T01:19:57.904Z,13.28
2022-09-02T01:20:58.304Z,13.30
2022-09-02T01:21:57.889Z,13.30
2022-09-02T01:22:57.873Z,13.26
2022-09-02T01:23:57.883Z,13.26
2022-09-02T01:24:57.833Z,13.23
2022-09-02T01:25:58.284Z,13.19
2022-09-02T01:26:57.821Z,13.19
2022-09-02T01:27:57.810Z,13.22
2022-09-02T01:28:57.812Z,13.23
2022-09-02T01:29:57.784Z,13.20
2022-09-02T01:30:58.301Z,13.23
2022-09-02T01:31:57.828Z,13.26
2022-09-02T01:32:57.750Z,13.30
2022-09-02T01:33:57.740Z,13.30
2022-09-02T01:34:57.728Z,13.32
2022-09-02T01:35:58.061Z,13.32
2022-09-02T01:36:57.700Z,13.28
2022-09-02T01:37:57.669Z,13.26
2022-09-02T01:38:57.650Z,13.25
2022-09-02T01:39:57.641Z,13.20
2022-09-02T01:40:58.081Z,13.19
2022-09-02T01:41:57.727Z,13.19
2022-09-02T01:42:57.666Z,13.15
2022-09-02T01:43:57.630Z,13.14
2022-09-02T01:44:57.608Z,13.15
2022-09-02T01:45:57.999Z,13.12
2022-09-02T01:46:57.606Z,13.10
2022-09-02T01:47:57.546Z,13.11
2022-09-02T01:48:57.526Z,13.14
2022-09-02T01:49:57.517Z,13.14
2022-09-02T01:50:58.080Z,13.11
2022-09-02T01:51:57.538Z,13.07
2022-09-02T01:52:57.537Z,13.04
2022-09-02T01:53:57.477Z,12.97
2022-09-02T01:54:57.493Z,12.93
2022-09-02T01:55:57.897Z,12.90
2022-09-02T01:56:57.456Z,12.86
2022-09-02T01:57:57.423Z,12.82
2022-09-02T01:58:57.418Z,12.77
2022-09-02T01:59:57.417Z,12.72
2022-09-02T02:00:57.910Z,12.68
2022-09-02T02:01:57.429Z,12.64
2022-09-02T02:02:57.353Z,12.57
2022-09-02T02:03:57.352Z,12.53
2022-09-02T02:04:57.345Z,12.47
2022-09-02T02:05:57.326Z,12.41
2022-09-02T02:06:57.684Z,12.34
2022-09-02T02:07:57.297Z,12.24
2022-09-02T02:08:57.274Z,12.17
2022-09-02T02:09:57.293Z,12.13
2022-09-02T02:10:57.263Z,12.09
2022-09-02T02:11:57.762Z,12.05
2022-09-02T02:12:57.246Z,11.99
2022-09-02T02:13:57.222Z,11.88
2022-09-02T02:14:57.212Z,11.86
2022-09-02T02:15:57.560Z,11.82
2022-09-02T02:16:57.912Z,11.79
2022-09-02T02:17:57.171Z,11.76
2022-09-02T02:18:57.172Z,11.72
2022-09-02T02:19:57.170Z,11.69
2022-09-02T02:20:57.122Z,11.65
2022-09-02T02:21:57.539Z,11.60
2022-09-02T02:22:57.111Z,11.54
2022-09-02T02:23:57.141Z,11.47
2022-09-02T02:24:57.083Z,11.43
2022-09-02T02:25:57.088Z,11.40
2022-09-02T02:26:57.428Z,11.35
2022-09-02T02:27:57.069Z,11.28
2022-09-02T02:28:57.059Z,11.27
2022-09-02T02:29:57.047Z,11.22
2022-09-02T02:30:57.054Z,11.19
2022-09-02T02:31:57.439Z,11.17
2022-09-02T02:32:56.980Z,11.14
2022-09-02T02:33:56.985Z,11.11
2022-09-02T02:34:56.979Z,11.07
2022-09-02T02:35:56.935Z,11.11
2022-09-02T02:36:57.377Z,11.17
2022-09-02T02:37:56.938Z,11.21
2022-09-02T02:38:56.884Z,11.29
2022-09-02T02:39:56.888Z,11.36
2022-09-02T02:40:56.887Z,11.47
2022-09-02T02:41:57.269Z,11.55
2022-09-02T02:42:56.856Z,11.67
2022-09-02T02:43:56.848Z,11.79
2022-09-02T02:44:56.805Z,11.95
2022-09-02T02:45:56.804Z,12.04
2022-09-02T02:46:57.360Z,12.07
2022-09-02T02:47:56.795Z,12.09
2022-09-02T02:48:56.766Z,12.10
2022-09-02T02:49:56.795Z,12.10
2022-09-02T02:50:56.764Z,12.09
2022-09-02T02:51:57.156Z,12.09
2022-09-02T02:52:56.754Z,12.05
2022-09-02T02:53:58.905Z,12.09
2022-09-02T02:54:56.692Z,12.14
2022-09-02T02:55:56.707Z,12.19
2022-09-02T02:56:57.047Z,12.28
2022-09-02T02:57:56.685Z,12.35
2022-09-02T02:58:56.633Z,12.42
2022-09-02T02:59:56.640Z,12.49
2022-09-02T03:00:56.631Z,12.52
2022-09-02T03:01:57.116Z,12.59
2022-09-02T03:02:56.689Z,12.70
2022-09-02T03:03:56.602Z,12.77
2022-09-02T03:04:56.632Z,12.82
2022-09-02T03:05:56.578Z,12.86
2022-09-02T03:06:56.961Z,12.86
2022-09-02T03:07:56.531Z,12.83
2022-09-02T03:08:56.534Z,12.86
2022-09-02T03:09:56.562Z,12.89
2022-09-02T03:10:56.508Z,12.89
2022-09-02T03:11:56.821Z,12.86
2022-09-02T03:12:56.487Z,12.83
2022-09-02T03:13:56.490Z,12.83
2022-09-02T03:14:56.470Z,12.75
2022-09-02T03:15:56.539Z,12.70
2022-09-02T03:16:56.873Z,12.67
2022-09-02T03:17:56.428Z,12.67
2022-09-02T03:18:56.429Z,12.60
2022-09-02T03:19:56.384Z,12.56
2022-09-02T03:20:56.376Z,12.53
2022-09-02T03:21:56.777Z,12.42
2022-09-02T03:22:56.345Z,12.35
2022-09-02T03:23:56.441Z,12.31
2022-09-02T03:24:56.323Z,12.27
2022-09-02T03:25:56.297Z,12.19
2022-09-02T03:26:56.615Z,12.13
2022-09-02T03:27:56.266Z,12.12
2022-09-02T03:28:56.256Z,12.10
2022-09-02T03:29:56.247Z,12.14
2022-09-02T03:30:56.336Z,12.17
2022-09-02T03:31:56.657Z,12.24
2022-09-02T03:32:58.405Z,12.29
2022-09-02T03:33:56.232Z,12.32
2022-09-02T03:34:56.154Z,12.34
2022-09-02T03:35:56.175Z,12.38
2022-09-02T03:36:56.536Z,12.42
2022-09-02T03:37:56.143Z,12.45
2022-09-02T03:38:56.151Z,12.47
2022-09-02T03:39:56.811Z,12.49
2022-09-02T03:40:56.090Z,12.49
2022-09-02T03:41:56.565Z,12.49
2022-09-02T03:42:59.928Z,12.53
2022-09-02T03:43:56.125Z,12.50
2022-09-02T03:44:56.441Z,12.50
2022-09-02T03:45:56.069Z,12.52
2022-09-02T03:46:56.464Z,12.54
2022-09-02T03:47:56.040Z,12.57
2022-09-02T03:48:56.023Z,12.59
2022-09-02T03:49:55.982Z,12.56
2022-09-02T03:50:55.981Z,12.50
2022-09-02T03:51:56.368Z,12.47
2022-09-02T03:52:56.079Z,12.49
2022-09-02T03:53:55.977Z,12.54
2022-09-02T03:54:55.940Z,12.59
2022-09-02T03:55:55.914Z,12.60
2022-09-02T03:56:55.901Z,12.53
2022-09-02T03:57:56.339Z,12.46
2022-09-02T03:58:55.887Z,12.41
2022-09-02T03:59:55.877Z,12.32
2022-09-02T04:00:55.927Z,12.24
2022-09-02T04:01:56.292Z,12.29
2022-09-02T04:02:55.871Z,12.29
2022-09-02T04:03:55.826Z,12.27
2022-09-02T04:04:55.779Z,12.21
2022-09-02T04:05:55.839Z,12.16
2022-09-02T04:06:55.756Z,12.13
2022-09-02T04:07:56.199Z,12.14
2022-09-02T04:08:55.790Z,12.17
2022-09-02T04:09:55.768Z,12.21
2022-09-02T04:10:55.748Z,12.27
2022-09-02T04:11:56.060Z,12.29
2022-09-02T04:12:55.741Z,12.31
2022-09-02T04:13:55.716Z,12.28
2022-09-02T04:14:57.644Z,12.27
2022-09-02T04:15:58.618Z,12.27
2022-09-02T04:16:57.067Z,12.35
2022-09-02T04:17:55.666Z,12.38
2022-09-02T04:18:55.624Z,12.39
2022-09-02T04:19:55.657Z,12.38
2022-09-02T04:20:55.646Z,12.37
2022-09-02T04:21:56.042Z,12.34
2022-09-02T04:22:55.565Z,12.28
2022-09-02T04:23:55.663Z,12.23
2022-09-02T04:24:55.576Z,12.24
2022-09-02T04:25:55.555Z,12.29
2022-09-02T04:26:55.542Z,12.35
2022-09-02T04:27:55.814Z,12.45
2022-09-02T04:28:55.744Z,12.52
2022-09-02T04:29:55.532Z,12.54
2022-09-02T04:30:55.567Z,12.57
2022-09-02T04:31:55.892Z,12.59
2022-09-02T04:32:55.443Z,12.59
2022-09-02T04:33:55.442Z,12.60
2022-09-02T04:34:55.420Z,12.70
2022-09-02T04:35:55.482Z,12.71
2022-09-02T04:36:55.403Z,12.71
2022-09-02T04:37:55.832Z,12.71
2022-09-02T04:38:55.371Z,12.74
2022-09-02T04:39:55.370Z,12.74
2022-09-02T04:40:55.381Z,12.71
2022-09-02T04:41:55.741Z,12.68
2022-09-02T04:42:55.503Z,12.71
2022-09-02T04:43:55.378Z,12.71
2022-09-02T04:44:55.319Z,12.75
2022-09-02T04:45:55.339Z,12.75
2022-09-02T04:46:55.570Z,12.74
2022-09-02T04:47:55.270Z,12.74
2022-09-02T04:48:55.250Z,12.74
2022-09-02T04:49:55.221Z,12.77
2022-09-02T04:50:55.260Z,12.77
2022-09-02T04:51:55.607Z,12.75
2022-09-02T04:52:55.175Z,12.75
2022-09-02T04:53:55.168Z,12.72
2022-09-02T04:54:55.167Z,12.70
2022-09-02T04:55:58.067Z,12.64
2022-09-02T04:56:55.597Z,12.59
2022-09-02T04:57:55.125Z,12.56
2022-09-02T05:00:12.885Z,12.49
2022-09-02T05:01:12.863Z,12.42
2022-09-02T05:02:13.914Z,12.38
2022-09-02T05:03:12.846Z,12.31
2022-09-02T05:04:12.800Z,12.28
2022-09-02T05:05:12.696Z,12.23
2022-09-02T05:06:12.674Z,12.19
2022-09-02T05:07:13.028Z,12.17
2022-09-02T05:08:12.635Z,12.10
2022-09-02T05:09:12.666Z,12.05
2022-09-02T05:10:12.627Z,11.98
2022-09-02T05:11:12.877Z,11.99
2022-09-02T05:12:13.100Z,11.98
2022-09-02T05:13:12.606Z,11.99
2022-09-02T05:14:12.620Z,12.04
2022-09-02T05:15:12.604Z,12.05
2022-09-02T05:16:12.976Z,12.09
2022-09-02T05:17:12.997Z,12.05
2022-09-02T05:18:13.049Z,12.04
2022-09-02T05:19:12.779Z,12.04
2022-09-02T05:20:12.505Z,11.99
2022-09-02T05:21:12.522Z,11.96
2022-09-02T05:22:12.882Z,11.96
2022-09-02T05:23:12.482Z,11.96
2022-09-02T05:24:12.483Z,11.99
2022-09-02T05:25:12.444Z,12.01
2022-09-02T05:26:12.433Z,12.07
2022-09-02T05:27:12.624Z,12.10
2022-09-02T05:28:12.367Z,12.13
2022-09-02T05:29:12.361Z,12.17
2022-09-02T05:30:12.391Z,12.17
2022-09-02T05:31:12.368Z,12.21
2022-09-02T05:32:12.654Z,12.24
2022-09-02T05:33:13.529Z,12.29
2022-09-02T05:34:12.291Z,12.34
2022-09-02T05:35:12.291Z,12.37
2022-09-02T05:36:12.300Z,12.39
2022-09-02T05:37:12.720Z,12.42
2022-09-02T05:38:12.282Z,12.46
2022-09-02T05:39:12.270Z,12.50
2022-09-02T05:40:12.331Z,12.54
2022-09-02T05:41:12.300Z,12.56
2022-09-02T05:42:12.530Z,12.64
2022-09-02T05:43:12.237Z,12.71
2022-09-02T05:44:12.179Z,12.78
2022-09-02T05:45:12.155Z,12.85
2022-09-02T05:46:12.227Z,12.92
2022-09-02T05:47:12.133Z,13.00
2022-09-02T05:48:12.546Z,13.05
2022-09-02T05:49:12.109Z,13.10
2022-09-02T05:50:12.121Z,13.17
2022-09-02T05:51:12.099Z,13.23
2022-09-02T05:52:12.089Z,13.28
2022-09-02T05:53:14.795Z,13.29
2022-09-02T05:54:12.027Z,13.32
2022-09-02T05:55:12.038Z,13.33
2022-09-02T05:56:12.028Z,13.36
2022-09-02T05:57:12.038Z,13.41
2022-09-02T05:58:12.457Z,13.42
2022-09-02T05:59:11.968Z,13.46
2022-09-02T06:00:16.944Z,13.54
2022-09-02T06:01:13.000Z,13.62
2022-09-02T06:02:12.044Z,13.67
2022-09-02T06:03:12.467Z,13.77
2022-09-02T06:04:11.954Z,13.85
2022-09-02T06:05:12.056Z,13.89
2022-09-02T06:06:22.424Z,13.95
2022-09-02T06:07:13.594Z,14.00
2022-09-02T06:08:12.482Z,14.04
2022-09-02T06:09:11.968Z,14.09
2022-09-02T06:10:12.005Z,14.14
2022-09-02T06:11:12.125Z,14.18
2022-09-02T06:12:11.815Z,14.24
2022-09-02T06:13:12.393Z,14.29
2022-09-02T06:14:11.996Z,14.36
2022-09-02T06:15:11.879Z,14.42
2022-09-02T06:16:12.024Z,14.45
2022-09-02T06:17:11.887Z,14.51
2022-09-02T06:18:14.400Z,14.55
2022-09-02T06:19:13.568Z,14.62
2022-09-02T06:20:12.019Z,14.86
2022-09-02T06:21:11.726Z,15.50
2022-09-02T06:22:11.706Z,16.28
2022-09-02T06:23:12.120Z,17.03
2022-09-02T06:24:11.746Z,17.52
2022-09-02T06:25:11.700Z,17.99
2022-09-02T06:26:12.327Z,18.57
2022-09-02T06:27:11.876Z,18.82
2022-09-02T06:28:12.233Z,19.11
2022-09-02T06:29:11.784Z,19.46
2022-09-02T06:30:11.764Z,19.68
2022-09-02T06:31:11.630Z,19.77
2022-09-02T06:32:11.588Z,19.62
2022-09-02T06:33:12.115Z,19.91
2022-09-02T06:34:18.665Z,20.28
2022-09-02T06:35:11.748Z,20.59
2022-09-02T06:36:11.659Z,20.79
2022-09-02T06:37:11.720Z,20.82
2022-09-02T06:38:12.120Z,20.91
2022-09-02T06:39:11.658Z,20.69
2022-09-02T06:40:11.705Z,20.69
2022-09-02T06:42:29.732Z,20.79
2022-09-02T06:43:29.394Z,20.69
2022-09-02T06:44:30.151Z,20.95
2022-09-02T06:45:29.168Z,21.19
2022-09-02T06:46:29.343Z,21.14
2022-09-02T06:47:29.112Z,21.29
2022-09-02T06:48:29.466Z,21.52
2022-09-02T06:49:29.106Z,21.38
2022-09-02T06:50:29.061Z,21.38
2022-09-02T06:51:29.013Z,21.44
2022-09-02T06:53:49.973Z,22.25
2022-09-02T06:54:48.983Z,22.55
2022-09-02T06:55:49.151Z,22.64
2022-09-02T06:56:49.651Z,22.00
2022-09-02T06:57:49.134Z,21.86
2022-09-02T06:58:49.434Z,21.91
2022-09-02T06:59:48.957Z,22.20
2022-09-02T07:00:48.851Z,22.18
2022-09-02T07:02:00.503Z,22.31
2022-09-02T07:04:18.624Z,22.82
2022-09-02T07:05:17.799Z,22.97
2022-09-02T07:06:17.793Z,22.37
2022-09-02T07:07:17.810Z,22.36
2022-09-02T07:08:26.728Z,22.06
2022-09-02T07:09:17.855Z,22.22
2022-09-02T07:10:17.869Z,22.60
2022-09-02T07:11:17.822Z,22.83
2022-09-02T07:12:17.797Z,22.98
2022-09-02T07:13:17.797Z,22.90
2022-09-02T07:14:17.905Z,22.55
2022-09-02T07:15:18.025Z,22.24
2022-09-02T07:16:22.755Z,22.33
2022-09-02T07:17:20.019Z,22.35
2022-09-02T07:19:35.561Z,22.24
2022-09-02T07:20:35.375Z,22.30
2022-09-02T07:21:34.915Z,22.65
2022-09-02T07:22:34.846Z,23.00
2022-09-02T07:26:16.970Z,23.04
2022-09-02T07:27:16.517Z,23.15
2022-09-02T07:28:16.485Z,23.16
2022-09-02T07:30:34.694Z,22.65
2022-09-02T07:31:34.198Z,23.01
2022-09-02T07:32:34.455Z,22.98
2022-09-02T07:33:33.997Z,23.10
2022-09-02T07:34:33.982Z,23.42
2022-09-02T07:35:33.987Z,23.31
2022-09-02T07:36:33.977Z,23.09
2022-09-02T07:37:33.901Z,23.31
2022-09-02T07:38:34.257Z,23.32
2022-09-02T07:39:33.937Z,23.33
2022-09-02T07:40:33.855Z,22.80
2022-09-02T07:41:33.865Z,22.31
2022-09-02T07:42:34.292Z,21.69
2022-09-02T07:43:33.771Z,21.59
2022-09-02T07:44:34.227Z,21.54
2022-09-02T07:45:33.924Z,21.47
2022-09-02T07:46:33.844Z,21.27
2022-09-02T07:47:33.808Z,21.43
2022-09-02T07:48:33.707Z,21.80
2022-09-02T07:50:34.652Z,21.94
2022-09-02T07:51:33.788Z,21.88
2022-09-02T07:52:33.757Z,21.82
2022-09-02T07:53:33.727Z,21.99
2022-09-02T07:54:34.222Z,22.18
2022-09-02T07:55:33.760Z,22.30
2022-09-02T07:56:34.140Z,22.47
2022-09-02T07:57:33.714Z,22.58
2022-09-02T07:58:33.650Z,22.45
2022-09-02T08:02:02.365Z,22.35
2022-09-02T08:03:02.097Z,22.17
2022-09-02T08:04:05.573Z,22.12
2022-09-02T08:05:01.977Z,22.40
2022-09-02T08:06:01.918Z,22.60
2022-09-02T08:07:02.005Z,22.54
2022-09-02T08:08:01.886Z,22.85
2022-09-02T08:09:01.878Z,23.12
2022-09-02T08:10:02.257Z,22.88
2022-09-02T08:12:01.856Z,22.75
2022-09-02T08:13:01.915Z,23.01
2022-09-02T08:14:01.846Z,23.23
2022-09-02T08:15:02.206Z,23.07
2022-09-02T08:16:01.989Z,22.42
2022-09-02T08:17:01.904Z,22.18
2022-09-02T08:18:01.775Z,22.35
2022-09-02T08:19:01.808Z,22.47
2022-09-02T08:20:01.819Z,22.51
2022-09-02T08:21:01.779Z,22.45
2022-09-02T08:22:01.719Z,22.47
2022-09-02T08:23:11.105Z,22.20
2022-09-02T08:24:02.736Z,22.00
2022-09-02T08:25:02.155Z,21.96
2022-09-02T08:26:01.743Z,21.32
2022-09-02T08:27:01.642Z,20.84
2022-09-02T08:28:01.696Z,20.38
2022-09-02T08:29:01.596Z,20.17
2022-09-02T08:30:01.643Z,20.13
2022-09-02T08:31:01.576Z,20.02
2022-09-02T08:32:01.613Z,20.13
2022-09-02T08:33:01.556Z,20.26
2022-09-02T08:34:01.548Z,20.42
2022-09-02T08:35:01.974Z,20.54
2022-09-02T08:36:01.506Z,20.36
2022-09-02T08:37:01.496Z,20.28
2022-09-02T08:38:02.318Z,20.14
2022-09-02T08:39:01.485Z,20.08
2022-09-02T08:40:01.876Z,20.13
2022-09-02T08:41:01.486Z,20.21
2022-09-02T08:43:01.414Z,20.24
2022-09-02T08:44:01.457Z,20.36
2022-09-02T08:45:01.464Z,20.47
2022-09-02T08:46:01.838Z,20.54
2022-09-02T08:47:01.545Z,20.52
2022-09-02T08:48:01.422Z,20.48
2022-09-02T08:49:01.493Z,20.47
2022-09-02T08:50:01.387Z,20.58
2022-09-02T08:51:01.405Z,20.64
2022-09-02T08:52:01.357Z,20.74
2022-09-02T08:53:01.341Z,20.87
2022-09-02T08:54:01.384Z,20.95
2022-09-02T08:55:01.339Z,20.98
2022-09-02T08:56:01.449Z,20.80
2022-09-02T08:57:01.485Z,20.79
2022-09-02T08:58:01.654Z,20.72
2022-09-02T08:59:01.744Z,20.77
2022-09-02T09:00:01.360Z,20.85
2022-09-02T09:01:01.567Z,20.85
2022-09-02T09:02:01.407Z,20.82
2022-09-02T09:03:01.236Z,20.84
2022-09-02T09:04:01.423Z,20.77
2022-09-02T09:05:01.374Z,20.88
2022-09-02T09:06:01.166Z,20.97
2022-09-02T09:07:01.253Z,21.09
2022-09-02T09:08:01.262Z,21.14
2022-09-02T09:09:01.254Z,21.22
2022-09-02T09:10:01.102Z,21.34
2022-09-02T09:11:01.599Z,21.43
2022-09-02T09:12:01.149Z,21.40
2022-09-02T09:13:01.164Z,21.38
2022-09-02T09:14:01.025Z,21.44
2022-09-02T09:15:01.081Z,21.50
2022-09-02T09:16:01.413Z,21.47
2022-09-02T09:17:01.276Z,21.34
2022-09-02T09:18:01.495Z,21.22
2022-09-02T09:19:02.959Z,21.29
2022-09-02T09:20:01.309Z,21.29
2022-09-02T09:21:16.673Z,21.32
2022-09-02T09:22:01.420Z,21.35
2022-09-02T09:23:01.304Z,21.28
2022-09-02T09:25:21.699Z,21.34
2022-09-02T09:27:45.587Z,21.59
2022-09-02T09:30:01.250Z,21.91
2022-09-02T09:31:01.773Z,21.84
2022-09-02T09:33:33.269Z,21.74
2022-09-02T09:38:15.948Z,21.68
2022-09-02T09:39:15.207Z,21.72
2022-09-02T09:40:15.235Z,21.65
2022-09-02T09:41:24.477Z,21.67
2022-09-02T09:42:15.495Z,21.64
2022-09-02T09:43:16.045Z,21.75
2022-09-02T09:44:15.255Z,21.82
2022-09-02T09:45:15.075Z,21.83
2022-09-02T09:46:23.258Z,21.88
2022-09-02T09:47:18.002Z,21.96
2022-09-02T09:48:14.905Z,21.94
2022-09-02T09:49:14.776Z,21.82
2022-09-02T09:50:14.826Z,21.90
2022-09-02T09:51:15.080Z,21.96
2022-09-02T09:52:14.760Z,21.84
2022-09-02T09:53:14.699Z,21.84
2022-09-02T09:54:14.668Z,21.98
2022-09-02T09:55:14.672Z,22.14
2022-09-02T09:56:14.681Z,22.06
2022-09-02T09:57:14.689Z,22.10
2022-09-02T09:58:15.176Z,22.22
2022-09-02T09:59:14.731Z,22.33
2022-09-02T10:00:14.647Z,22.28
2022-09-02T10:01:15.230Z,22.25
2022-09-02T10:02:14.693Z,22.37
2022-09-02T10:03:14.618Z,22.51
2022-09-02T10:04:39.398Z,22.68
2022-09-02T10:05:15.538Z,22.65
2022-09-02T10:06:14.918Z,22.58
2022-09-02T10:07:14.508Z,22.65
2022-09-02T10:08:15.398Z,22.64
2022-09-02T10:09:24.548Z,22.58
2022-09-02T10:10:14.966Z,22.60
2022-09-02T10:11:15.415Z,22.61
2022-09-02T10:13:32.807Z,22.70
2022-09-02T10:16:42.925Z,22.51
2022-09-02T10:17:42.411Z,22.45
2022-09-02T10:18:42.343Z,22.36
2022-09-02T10:19:42.325Z,22.45
2022-09-02T10:20:48.617Z,22.42
2022-09-02T10:21:45.190Z,22.43
2022-09-02T10:22:58.778Z,22.54
2022-09-02T10:23:43.275Z,22.73
2022-09-02T10:24:42.264Z,22.85
2022-09-02T10:25:42.254Z,22.95
2022-09-02T10:26:42.254Z,23.00
2022-09-02T10:27:42.565Z,22.98
2022-09-02T10:28:42.228Z,22.95
2022-09-02T10:29:42.204Z,22.83
2022-09-02T10:30:42.206Z,22.80
2022-09-02T10:31:42.614Z,22.86
2022-09-02T10:32:42.182Z,22.79
2022-09-02T10:33:42.146Z,22.70
2022-09-02T10:34:42.201Z,22.68
2022-09-02T10:35:42.132Z,22.79
2022-09-02T10:36:42.108Z,22.86
2022-09-02T10:37:42.491Z,22.88
2022-09-02T10:38:42.094Z,22.79
2022-09-02T10:39:42.071Z,22.64
2022-09-02T10:40:42.109Z,22.67
2022-09-02T10:42:42.070Z,22.51
2022-09-02T10:43:42.013Z,22.57
2022-09-02T10:44:42.062Z,22.65
2022-09-02T10:45:42.003Z,22.62
2022-09-02T10:46:42.473Z,22.68
2022-09-02T10:47:42.019Z,22.60
2022-09-02T10:48:41.960Z,22.62
2022-09-02T10:49:42.022Z,22.72
2022-09-02T10:50:43.759Z,22.68
2022-09-02T10:51:42.242Z,22.76
2022-09-02T10:52:41.912Z,22.70
2022-09-02T10:53:41.911Z,22.72
2022-09-02T10:54:41.943Z,22.79
2022-09-02T10:55:41.918Z,22.75
2022-09-02T10:56:41.852Z,22.72
2022-09-02T10:57:42.223Z,22.72
2022-09-02T10:58:41.832Z,22.76
2022-09-02T10:59:41.822Z,22.80
2022-09-02T11:00:41.841Z,22.83
2022-09-02T11:01:43.221Z,22.85
2022-09-02T11:02:41.789Z,22.80
2022-09-02T11:03:42.732Z,22.83
2022-09-02T11:04:41.768Z,22.90
2022-09-02T11:05:41.742Z,22.94
2022-09-02T11:07:01.334Z,22.95
2022-09-02T11:07:43.185Z,23.05
2022-09-02T11:08:41.704Z,23.19
2022-09-02T11:09:41.689Z,23.32
2022-09-02T11:10:41.684Z,23.42
2022-09-02T11:11:41.700Z,23.55
2022-09-02T11:12:41.669Z,23.50
2022-09-02T11:13:41.632Z,23.43
2022-09-02T11:14:41.623Z,23.48
2022-09-02T11:15:41.636Z,23.55
2022-09-02T11:16:42.052Z,23.70
2022-09-02T11:17:41.580Z,23.85
2022-09-02T11:18:41.559Z,23.85
2022-09-02T11:19:41.551Z,23.88
2022-09-02T11:20:41.546Z,23.80
2022-09-02T11:21:41.890Z,23.63
2022-09-02T11:22:41.516Z,23.43
2022-09-02T11:23:41.506Z,23.46
2022-09-02T11:24:45.847Z,23.55
2022-09-02T11:25:42.483Z,23.58
2022-09-02T11:26:41.461Z,23.66
2022-09-02T11:27:42.838Z,23.69
2022-09-02T11:28:41.460Z,23.70
2022-09-02T11:29:41.434Z,23.68
2022-09-02T11:30:41.468Z,23.57
2022-09-02T11:31:41.848Z,23.47
2022-09-02T11:32:41.395Z,23.50
2022-09-02T11:33:41.382Z,23.53
2022-09-02T11:34:41.425Z,23.68
2022-09-02T11:35:41.351Z,23.73
2022-09-02T11:36:41.347Z,23.76
2022-09-02T11:37:41.364Z,23.65
2022-09-02T11:38:41.310Z,23.70
2022-09-02T11:39:53.986Z,23.83
2022-09-02T11:40:42.402Z,23.93
2022-09-02T11:41:41.900Z,23.93
2022-09-02T11:42:41.262Z,24.06
2022-09-02T11:43:41.240Z,24.12
2022-09-02T11:44:41.268Z,24.22
2022-09-02T11:45:42.301Z,24.31
2022-09-02T11:46:41.568Z,24.22
2022-09-02T11:47:41.190Z,24.13
2022-09-02T11:48:41.197Z,24.21
2022-09-02T11:49:41.173Z,24.32
2022-09-02T11:50:41.172Z,24.43
2022-09-02T11:51:41.639Z,24.28
2022-09-02T11:52:41.143Z,24.22
2022-09-02T11:53:41.107Z,24.18
2022-09-02T11:54:41.137Z,24.10
2022-09-02T11:55:41.091Z,24.09
2022-09-02T11:56:41.071Z,24.13
2022-09-02T11:57:41.111Z,24.25
2022-09-02T11:58:41.068Z,24.31
2022-09-02T11:59:41.085Z,24.31
2022-09-02T12:00:41.022Z,24.34
2022-09-02T12:01:44.058Z,24.40
2022-09-02T12:02:41.006Z,24.32
2022-09-02T12:03:58.698Z,24.39
2022-09-02T12:04:59.904Z,24.24
2022-09-02T12:05:42.027Z,24.10
2022-09-02T12:06:40.993Z,24.18
2022-09-02T12:07:41.330Z,24.15
2022-09-02T12:08:40.923Z,24.02
2022-09-02T12:09:40.918Z,24.03
2022-09-02T12:10:40.913Z,23.88
2022-09-02T12:11:41.374Z,23.97
2022-09-02T12:12:40.862Z,24.03
2022-09-02T12:13:40.904Z,24.10
2022-09-02T12:14:40.834Z,24.24
2022-09-02T12:15:40.822Z,24.34
2022-09-02T12:16:41.192Z,24.30
2022-09-02T12:17:40.808Z,24.21
2022-09-02T12:18:40.780Z,24.13
2022-09-02T12:19:40.770Z,24.06
2022-09-02T12:20:40.741Z,23.93
2022-09-02T12:21:41.110Z,23.87
2022-09-02T12:22:40.737Z,23.95
2022-09-02T12:23:40.709Z,24.05
2022-09-02T12:24:40.692Z,24.15
2022-09-02T12:25:40.691Z,24.16
2022-09-02T12:26:40.696Z,24.24
2022-09-02T12:27:40.903Z,24.16
2022-09-02T12:28:40.674Z,24.15
2022-09-02T12:29:40.754Z,24.18
2022-09-02T12:30:40.698Z,24.16
2022-09-02T12:31:41.029Z,24.32
2022-09-02T12:32:40.592Z,24.45
2022-09-02T12:33:40.603Z,24.55
2022-09-02T12:34:40.584Z,24.60
2022-09-02T12:35:40.748Z,24.62
2022-09-02T12:36:40.532Z,24.50
2022-09-02T12:37:40.560Z,24.43
2022-09-02T12:38:40.532Z,24.46
2022-09-02T12:39:40.537Z,24.47
2022-09-02T12:40:40.557Z,24.62
2022-09-02T12:41:40.501Z,24.67
2022-09-02T12:42:40.492Z,24.58
2022-09-02T12:43:40.466Z,24.61
2022-09-02T12:44:40.450Z,24.76
2022-09-02T12:45:40.480Z,24.84
2022-09-02T12:46:40.521Z,24.78
2022-09-02T12:47:40.467Z,24.61
2022-09-02T12:48:40.482Z,24.62
2022-09-02T12:49:40.392Z,24.83
2022-09-02T12:50:40.360Z,24.91
2022-09-02T12:51:40.821Z,25.00
2022-09-02T12:52:40.340Z,25.14
2022-09-02T12:53:40.312Z,25.24
2022-09-02T12:54:40.341Z,25.36
2022-09-02T12:55:40.292Z,25.46
2022-09-02T12:56:40.296Z,25.57
2022-09-02T12:57:40.291Z,25.43
2022-09-02T12:58:40.251Z,25.30
2022-09-02T12:59:40.232Z,25.13
2022-09-02T13:00:40.222Z,25.09
2022-09-02T13:01:40.404Z,25.05
2022-09-02T13:02:40.198Z,24.99
2022-09-02T13:03:40.191Z,25.06
2022-09-02T13:04:40.184Z,25.09
2022-09-02T13:05:40.161Z,25.24
2022-09-02T13:06:40.151Z,25.18
2022-09-02T13:07:40.164Z,25.15
2022-09-02T13:08:40.122Z,25.05
2022-09-02T13:09:40.508Z,25.02
2022-09-02T13:10:40.125Z,25.05
2022-09-02T13:11:40.434Z,25.05
2022-09-02T13:12:40.073Z,25.15
2022-09-02T13:13:40.081Z,25.20
2022-09-02T13:14:40.091Z,25.24
2022-09-02T13:15:40.077Z,25.28
2022-09-02T13:16:40.361Z,25.14
2022-09-02T13:17:40.382Z,25.02
2022-09-02T13:18:40.002Z,25.02
2022-09-02T13:19:40.000Z,25.10
2022-09-02T13:20:39.999Z,25.15
2022-09-02T13:21:40.433Z,25.24
2022-09-02T13:22:39.938Z,25.36